sensor_id;sensor_type;location;lat;lon;timestamp;temperature;humidity
50758;DHT22;36732;47.980;11.652;2022-10-23T00:01:34;15.60;62.20
50758;DHT22;36732;47.980;11.652;2022-10-23T00:04:17;15.60;61.90
50758;DHT22;36732;47.980;11.652;2022-10-23T00:06:45;15.50;61.70
50758;DHT22;36732;47.980;11.652;2022-10-23T00:09:12;15.60;62.00
50758;DHT22;36732;47.980;11.652;2022-10-23T00:11:42;15.60;61.80
50758;DHT22;36732;47.980;11.652;2022-10-23T00:14:11;15.60;61.70
50758;DHT22;36732;47.980;11.652;2022-10-23T00:16:37;15.50;61.80
50758;DHT22;36732;47.980;11.652;2022-10-23T00:19:03;15.50;61.80
50758;DHT22;36732;47.980;11.652;2022-10-23T00:21:29;15.50;61.70
50758;DHT22;36732;47.980;11.652;2022-10-23T00:23:55;15.50;61.70
50758;DHT22;36732;47.980;11.652;2022-10-23T00:26:21;15.50;61.70
50758;DHT22;36732;47.980;11.652;2022-10-23T00:28:49;15.40;61.70
50758;DHT22;36732;47.980;11.652;2022-10-23T00:31:18;15.40;61.70
50758;DHT22;36732;47.980;11.652;2022-10-23T00:33:45;15.40;61.60
50758;DHT22;36732;47.980;11.652;2022-10-23T00:36:12;15.40;61.50
50758;DHT22;36732;47.980;11.652;2022-10-23T00:38:39;15.40;61.50
50758;DHT22;36732;47.980;11.652;2022-10-23T00:41:07;15.40;61.60
50758;DHT22;36732;47.980;11.652;2022-10-23T00:44:07;15.40;61.30
50758;DHT22;36732;47.980;11.652;2022-10-23T00:46:35;15.30;60.90
50758;DHT22;36732;47.980;11.652;2022-10-23T00:49:03;15.30;61.10
50758;DHT22;36732;47.980;11.652;2022-10-23T00:51:35;15.30;61.20
50758;DHT22;36732;47.980;11.652;2022-10-23T00:54:06;15.30;61.00
50758;DHT22;36732;47.980;11.652;2022-10-23T00:56:38;15.30;61.00
50758;DHT22;36732;47.980;11.652;2022-10-23T00:59:05;15.30;60.70
50758;DHT22;36732;47.980;11.652;2022-10-23T01:01:31;15.30;60.90
50758;DHT22;36732;47.980;11.652;2022-10-23T01:03:56;15.20;60.80
50758;DHT22;36732;47.980;11.652;2022-10-23T01:09:30;15.20;60.70
50758;DHT22;36732;47.980;11.652;2022-10-23T01:12:16;15.20;60.40
50758;DHT22;36732;47.980;11.652;2022-10-23T01:15:31;15.20;60.40
50758;DHT22;36732;47.980;11.652;2022-10-23T01:23:13;15.10;60.30
50758;DHT22;36732;47.980;11.652;2022-10-23T01:31:58;15.10;60.20
50758;DHT22;36732;47.980;11.652;2022-10-23T01:34:43;15.00;59.90
50758;DHT22;36732;47.980;11.652;2022-10-23T01:37:16;15.00;60.10
50758;DHT22;36732;47.980;11.652;2022-10-23T01:40:12;15.00;60.10
50758;DHT22;36732;47.980;11.652;2022-10-23T01:42:55;15.00;59.90
50758;DHT22;36732;47.980;11.652;2022-10-23T01:45:36;15.00;59.90
50758;DHT22;36732;47.980;11.652;2022-10-23T01:48:06;14.90;59.50
50758;DHT22;36732;47.980;11.652;2022-10-23T01:50:35;14.90;59.70
50758;DHT22;36732;47.980;11.652;2022-10-23T01:53:03;14.90;59.70
50758;DHT22;36732;47.980;11.652;2022-10-23T01:55:30;14.90;59.60
50758;DHT22;36732;47.980;11.652;2022-10-23T01:57:58;14.90;59.70
50758;DHT22;36732;47.980;11.652;2022-10-23T02:00:26;14.80;59.70
50758;DHT22;36732;47.980;11.652;2022-10-23T02:02:52;14.80;59.60
50758;DHT22;36732;47.980;11.652;2022-10-23T02:05:24;14.80;59.70
50758;DHT22;36732;47.980;11.652;2022-10-23T02:07:52;14.80;59.50
50758;DHT22;36732;47.980;11.652;2022-10-23T02:10:19;14.80;59.70
50758;DHT22;36732;47.980;11.652;2022-10-23T02:12:57;14.80;59.70
50758;DHT22;36732;47.980;11.652;2022-10-23T02:20:59;14.70;59.40
50758;DHT22;36732;47.980;11.652;2022-10-23T02:23:49;14.70;59.40
50758;DHT22;36732;47.980;11.652;2022-10-23T02:26:26;14.70;59.40
50758;DHT22;36732;47.980;11.652;2022-10-23T02:29:06;14.70;59.40
50758;DHT22;36732;47.980;11.652;2022-10-23T02:31:37;14.70;59.40
50758;DHT22;36732;47.980;11.652;2022-10-23T02:34:03;14.70;59.50
50758;DHT22;36732;47.980;11.652;2022-10-23T02:36:28;14.70;59.50
50758;DHT22;36732;47.980;11.652;2022-10-23T02:38:54;14.70;59.50
50758;DHT22;36732;47.980;11.652;2022-10-23T02:58:28;14.60;59.20
50758;DHT22;36732;47.980;11.652;2022-10-23T03:01:12;14.50;59.00
50758;DHT22;36732;47.980;11.652;2022-10-23T03:03:52;14.60;59.10
50758;DHT22;36732;47.980;11.652;2022-10-23T03:06:22;14.50;59.10
50758;DHT22;36732;47.980;11.652;2022-10-23T03:08:52;14.50;59.20
50758;DHT22;36732;47.980;11.652;2022-10-23T03:11:26;14.50;59.00
50758;DHT22;36732;47.980;11.652;2022-10-23T03:13:52;14.50;59.20
50758;DHT22;36732;47.980;11.652;2022-10-23T03:16:18;14.50;59.20
50758;DHT22;36732;47.980;11.652;2022-10-23T03:18:43;14.50;59.20
50758;DHT22;36732;47.980;11.652;2022-10-23T03:21:09;14.50;59.20
50758;DHT22;36732;47.980;11.652;2022-10-23T03:23:35;14.50;59.10
50758;DHT22;36732;47.980;11.652;2022-10-23T03:26:00;14.50;59.10
50758;DHT22;36732;47.980;11.652;2022-10-23T03:28:26;14.40;59.00
50758;DHT22;36732;47.980;11.652;2022-10-23T03:30:52;14.40;58.90
50758;DHT22;36732;47.980;11.652;2022-10-23T03:33:17;14.40;59.00
50758;DHT22;36732;47.980;11.652;2022-10-23T03:35:43;14.40;59.00
50758;DHT22;36732;47.980;11.652;2022-10-23T03:38:09;14.40;59.00
50758;DHT22;36732;47.980;11.652;2022-10-23T03:40:35;14.40;58.90
50758;DHT22;36732;47.980;11.652;2022-10-23T03:43:00;14.40;58.90
50758;DHT22;36732;47.980;11.652;2022-10-23T03:45:26;14.40;58.90
50758;DHT22;36732;47.980;11.652;2022-10-23T03:47:52;14.40;58.90
50758;DHT22;36732;47.980;11.652;2022-10-23T03:50:18;14.40;58.90
50758;DHT22;36732;47.980;11.652;2022-10-23T03:52:44;14.30;58.80
50758;DHT22;36732;47.980;11.652;2022-10-23T03:55:10;14.30;58.80
50758;DHT22;36732;47.980;11.652;2022-10-23T03:57:36;14.30;58.70
50758;DHT22;36732;47.980;11.652;2022-10-23T04:00:04;14.30;58.80
50758;DHT22;36732;47.980;11.652;2022-10-23T04:02:31;14.30;58.70
50758;DHT22;36732;47.980;11.652;2022-10-23T04:04:57;14.30;58.90
50758;DHT22;36732;47.980;11.652;2022-10-23T04:07:22;14.30;58.80
50758;DHT22;36732;47.980;11.652;2022-10-23T04:09:48;14.30;58.80
50758;DHT22;36732;47.980;11.652;2022-10-23T04:12:14;14.30;58.90
50758;DHT22;36732;47.980;11.652;2022-10-23T04:14:39;14.30;58.90
50758;DHT22;36732;47.980;11.652;2022-10-23T04:17:05;14.20;58.90
50758;DHT22;36732;47.980;11.652;2022-10-23T04:19:31;14.30;59.10
50758;DHT22;36732;47.980;11.652;2022-10-23T04:21:57;14.20;59.00
50758;DHT22;36732;47.980;11.652;2022-10-23T04:24:23;14.20;59.00
50758;DHT22;36732;47.980;11.652;2022-10-23T04:26:49;14.20;59.00
50758;DHT22;36732;47.980;11.652;2022-10-23T04:29:16;14.20;59.10
50758;DHT22;36732;47.980;11.652;2022-10-23T04:31:42;14.20;59.10
50758;DHT22;36732;47.980;11.652;2022-10-23T04:34:07;14.20;59.10
50758;DHT22;36732;47.980;11.652;2022-10-23T04:36:33;14.20;59.30
50758;DHT22;36732;47.980;11.652;2022-10-23T04:38:59;14.20;59.40
50758;DHT22;36732;47.980;11.652;2022-10-23T04:41:25;14.20;59.30
50758;DHT22;36732;47.980;11.652;2022-10-23T04:43:50;14.20;59.40
50758;DHT22;36732;47.980;11.652;2022-10-23T04:46:16;14.20;59.50
50758;DHT22;36732;47.980;11.652;2022-10-23T04:48:42;14.20;59.50
50758;DHT22;36732;47.980;11.652;2022-10-23T04:51:09;14.20;59.50
50758;DHT22;36732;47.980;11.652;2022-10-23T04:53:34;14.20;59.50
50758;DHT22;36732;47.980;11.652;2022-10-23T04:56:00;14.20;59.50
50758;DHT22;36732;47.980;11.652;2022-10-23T04:58:28;14.20;59.60
50758;DHT22;36732;47.980;11.652;2022-10-23T05:00:54;14.20;59.50
50758;DHT22;36732;47.980;11.652;2022-10-23T05:03:22;14.20;59.40
50758;DHT22;36732;47.980;11.652;2022-10-23T05:05:52;14.20;59.40
50758;DHT22;36732;47.980;11.652;2022-10-23T05:08:19;14.20;59.40
50758;DHT22;36732;47.980;11.652;2022-10-23T05:10:47;14.20;59.40
50758;DHT22;36732;47.980;11.652;2022-10-23T05:13:13;14.20;59.40
50758;DHT22;36732;47.980;11.652;2022-10-23T05:15:39;14.20;59.40
50758;DHT22;36732;47.980;11.652;2022-10-23T05:18:11;14.20;59.40
50758;DHT22;36732;47.980;11.652;2022-10-23T05:20:40;14.20;59.40
50758;DHT22;36732;47.980;11.652;2022-10-23T05:23:10;14.20;59.40
50758;DHT22;36732;47.980;11.652;2022-10-23T05:25:38;14.20;59.50
50758;DHT22;36732;47.980;11.652;2022-10-23T05:28:03;14.20;59.60
50758;DHT22;36732;47.980;11.652;2022-10-23T05:30:29;14.10;59.60
50758;DHT22;36732;47.980;11.652;2022-10-23T05:32:59;14.20;59.80
50758;DHT22;36732;47.980;11.652;2022-10-23T05:35:25;14.10;59.80
50758;DHT22;36732;47.980;11.652;2022-10-23T05:37:52;14.20;60.00
50758;DHT22;36732;47.980;11.652;2022-10-23T05:40:19;14.10;60.00
50758;DHT22;36732;47.980;11.652;2022-10-23T05:42:45;14.10;60.00
50758;DHT22;36732;47.980;11.652;2022-10-23T05:45:11;14.20;60.00
50758;DHT22;36732;47.980;11.652;2022-10-23T05:47:37;14.20;60.00
50758;DHT22;36732;47.980;11.652;2022-10-23T05:50:02;14.20;60.00
50758;DHT22;36732;47.980;11.652;2022-10-23T05:52:28;14.20;59.90
50758;DHT22;36732;47.980;11.652;2022-10-23T05:54:54;14.20;59.90
50758;DHT22;36732;47.980;11.652;2022-10-23T05:57:20;14.20;59.80
50758;DHT22;36732;47.980;11.652;2022-10-23T05:59:45;14.10;59.70
50758;DHT22;36732;47.980;11.652;2022-10-23T06:02:11;14.20;59.80
50758;DHT22;36732;47.980;11.652;2022-10-23T06:04:37;14.10;59.60
50758;DHT22;36732;47.980;11.652;2022-10-23T06:07:03;14.20;59.70
50758;DHT22;36732;47.980;11.652;2022-10-23T06:09:29;14.10;59.60
50758;DHT22;36732;47.980;11.652;2022-10-23T06:11:55;14.10;59.60
50758;DHT22;36732;47.980;11.652;2022-10-23T06:14:20;14.10;59.60
50758;DHT22;36732;47.980;11.652;2022-10-23T06:16:46;14.10;59.60
50758;DHT22;36732;47.980;11.652;2022-10-23T06:19:12;14.10;59.60
50758;DHT22;36732;47.980;11.652;2022-10-23T06:21:39;14.10;59.60
50758;DHT22;36732;47.980;11.652;2022-10-23T06:24:06;14.10;59.60
50758;DHT22;36732;47.980;11.652;2022-10-23T06:26:32;14.10;59.60
50758;DHT22;36732;47.980;11.652;2022-10-23T06:28:59;14.10;59.70
50758;DHT22;36732;47.980;11.652;2022-10-23T06:31:25;14.10;59.80
50758;DHT22;36732;47.980;11.652;2022-10-23T06:33:53;14.10;59.80
50758;DHT22;36732;47.980;11.652;2022-10-23T06:36:20;14.10;59.90
50758;DHT22;36732;47.980;11.652;2022-10-23T06:38:45;14.00;59.90
50758;DHT22;36732;47.980;11.652;2022-10-23T06:41:16;14.00;60.00
50758;DHT22;36732;47.980;11.652;2022-10-23T06:43:46;14.00;60.00
50758;DHT22;36732;47.980;11.652;2022-10-23T06:46:13;14.00;60.00
50758;DHT22;36732;47.980;11.652;2022-10-23T06:48:43;14.00;60.10
50758;DHT22;36732;47.980;11.652;2022-10-23T06:51:11;14.00;60.20
50758;DHT22;36732;47.980;11.652;2022-10-23T06:53:38;14.00;60.30
50758;DHT22;36732;47.980;11.652;2022-10-23T06:56:05;14.00;60.50
50758;DHT22;36732;47.980;11.652;2022-10-23T06:58:33;14.00;60.60
50758;DHT22;36732;47.980;11.652;2022-10-23T07:01:02;14.00;60.60
50758;DHT22;36732;47.980;11.652;2022-10-23T07:03:29;14.10;60.80
50758;DHT22;36732;47.980;11.652;2022-10-23T07:05:54;14.00;60.90
50758;DHT22;36732;47.980;11.652;2022-10-23T07:08:20;14.00;61.10
50758;DHT22;36732;47.980;11.652;2022-10-23T07:10:46;14.10;61.30
50758;DHT22;36732;47.980;11.652;2022-10-23T07:13:13;14.10;61.40
50758;DHT22;36732;47.980;11.652;2022-10-23T07:15:39;14.10;61.50
50758;DHT22;36732;47.980;11.652;2022-10-23T07:18:05;14.10;61.80
50758;DHT22;36732;47.980;11.652;2022-10-23T07:20:31;14.10;62.00
50758;DHT22;36732;47.980;11.652;2022-10-23T07:22:58;14.10;62.00
50758;DHT22;36732;47.980;11.652;2022-10-23T07:25:24;14.10;62.20
50758;DHT22;36732;47.980;11.652;2022-10-23T07:27:51;14.10;62.30
50758;DHT22;36732;47.980;11.652;2022-10-23T07:30:17;14.20;62.50
50758;DHT22;36732;47.980;11.652;2022-10-23T07:32:43;14.20;62.70
50758;DHT22;36732;47.980;11.652;2022-10-23T07:35:10;14.20;62.90
50758;DHT22;36732;47.980;11.652;2022-10-23T07:37:36;14.20;63.10
50758;DHT22;36732;47.980;11.652;2022-10-23T07:40:04;14.30;63.20
50758;DHT22;36732;47.980;11.652;2022-10-23T07:42:31;14.30;63.40
50758;DHT22;36732;47.980;11.652;2022-10-23T07:44:56;14.30;63.40
50758;DHT22;36732;47.980;11.652;2022-10-23T07:47:22;14.40;64.30
50758;DHT22;36732;47.980;11.652;2022-10-23T07:49:48;14.40;63.70
50758;DHT22;36732;47.980;11.652;2022-10-23T07:52:14;14.40;63.80
50758;DHT22;36732;47.980;11.652;2022-10-23T07:54:40;14.40;63.80
50758;DHT22;36732;47.980;11.652;2022-10-23T07:57:06;14.50;63.90
50758;DHT22;36732;47.980;11.652;2022-10-23T07:59:34;14.40;64.00
50758;DHT22;36732;47.980;11.652;2022-10-23T08:02:00;14.50;64.10
50758;DHT22;36732;47.980;11.652;2022-10-23T08:04:26;14.50;64.00
50758;DHT22;36732;47.980;11.652;2022-10-23T08:06:51;14.50;64.10
50758;DHT22;36732;47.980;11.652;2022-10-23T08:09:17;14.60;64.10
50758;DHT22;36732;47.980;11.652;2022-10-23T08:11:43;14.60;64.20
50758;DHT22;36732;47.980;11.652;2022-10-23T08:14:09;14.60;64.20
50758;DHT22;36732;47.980;11.652;2022-10-23T08:16:36;14.60;64.30
50758;DHT22;36732;47.980;11.652;2022-10-23T08:19:04;14.60;64.40
50758;DHT22;36732;47.980;11.652;2022-10-23T08:21:31;14.70;64.40
50758;DHT22;36732;47.980;11.652;2022-10-23T08:23:59;14.70;64.50
50758;DHT22;36732;47.980;11.652;2022-10-23T08:26:26;14.70;64.70
50758;DHT22;36732;47.980;11.652;2022-10-23T08:28:57;14.70;65.00
50758;DHT22;36732;47.980;11.652;2022-10-23T08:31:23;14.70;65.20
50758;DHT22;36732;47.980;11.652;2022-10-23T08:33:49;14.70;65.40
50758;DHT22;36732;47.980;11.652;2022-10-23T08:36:21;14.80;65.60
50758;DHT22;36732;47.980;11.652;2022-10-23T08:38:49;14.80;65.90
50758;DHT22;36732;47.980;11.652;2022-10-23T08:41:33;14.80;65.90
50758;DHT22;36732;47.980;11.652;2022-10-23T08:44:17;14.80;66.20
50758;DHT22;36732;47.980;11.652;2022-10-23T08:47:10;14.90;66.20
50758;DHT22;36732;47.980;11.652;2022-10-23T08:50:06;14.90;66.00
50758;DHT22;36732;47.980;11.652;2022-10-23T08:52:49;14.90;65.70
50758;DHT22;36732;47.980;11.652;2022-10-23T08:55:30;14.90;65.90
50758;DHT22;36732;47.980;11.652;2022-10-23T08:58:09;15.00;65.80
50758;DHT22;36732;47.980;11.652;2022-10-23T09:00:56;15.00;65.90
50758;DHT22;36732;47.980;11.652;2022-10-23T09:03:22;15.00;65.90
50758;DHT22;36732;47.980;11.652;2022-10-23T09:06:10;15.00;66.10
50758;DHT22;36732;47.980;11.652;2022-10-23T09:08:51;15.10;66.60
50758;DHT22;36732;47.980;11.652;2022-10-23T09:11:26;15.10;66.70
50758;DHT22;36732;47.980;11.652;2022-10-23T09:19:53;15.20;67.10
50758;DHT22;36732;47.980;11.652;2022-10-23T09:22:23;15.20;67.20
50758;DHT22;36732;47.980;11.652;2022-10-23T09:24:49;15.30;67.60
50758;DHT22;36732;47.980;11.652;2022-10-23T09:27:16;15.30;67.60
50758;DHT22;36732;47.980;11.652;2022-10-23T09:29:50;15.30;67.70
50758;DHT22;36732;47.980;11.652;2022-10-23T09:32:19;15.30;67.70
50758;DHT22;36732;47.980;11.652;2022-10-23T09:34:56;15.40;67.90
50758;DHT22;36732;47.980;11.652;2022-10-23T09:37:26;15.40;67.80
50758;DHT22;36732;47.980;11.652;2022-10-23T09:43:16;15.40;68.30
50758;DHT22;36732;47.980;11.652;2022-10-23T09:45:43;15.50;68.00
50758;DHT22;36732;47.980;11.652;2022-10-23T09:48:20;15.50;67.70
50758;DHT22;36732;47.980;11.652;2022-10-23T09:50:49;15.50;67.70
50758;DHT22;36732;47.980;11.652;2022-10-23T09:53:32;15.50;67.80
50758;DHT22;36732;47.980;11.652;2022-10-23T09:56:03;15.50;68.10
50758;DHT22;36732;47.980;11.652;2022-10-23T09:58:38;15.60;68.20
50758;DHT22;36732;47.980;11.652;2022-10-23T10:01:25;15.60;68.20
50758;DHT22;36732;47.980;11.652;2022-10-23T10:03:53;15.60;68.70
50758;DHT22;36732;47.980;11.652;2022-10-23T10:08:54;15.70;69.40
50758;DHT22;36732;47.980;11.652;2022-10-23T10:23:09;15.80;71.30
50758;DHT22;36732;47.980;11.652;2022-10-23T10:26:05;15.90;71.60
50758;DHT22;36732;47.980;11.652;2022-10-23T10:29:09;15.90;72.10
50758;DHT22;36732;47.980;11.652;2022-10-23T10:35:28;16.00;72.40
50758;DHT22;36732;47.980;11.652;2022-10-23T10:40:41;16.00;72.50
50758;DHT22;36732;47.980;11.652;2022-10-23T10:46:29;16.10;73.20
50758;DHT22;36732;47.980;11.652;2022-10-23T10:49:00;16.20;72.90
50758;DHT22;36732;47.980;11.652;2022-10-23T10:51:37;16.20;72.20
50758;DHT22;36732;47.980;11.652;2022-10-23T10:57:13;16.20;72.80
50758;DHT22;36732;47.980;11.652;2022-10-23T10:59:45;16.30;72.90
50758;DHT22;36732;47.980;11.652;2022-10-23T11:02:47;16.30;72.40
50758;DHT22;36732;47.980;11.652;2022-10-23T11:08:03;16.30;72.70
50758;DHT22;36732;47.980;11.652;2022-10-23T11:10:31;16.40;72.90
50758;DHT22;36732;47.980;11.652;2022-10-23T11:12:58;16.40;72.90
50758;DHT22;36732;47.980;11.652;2022-10-23T11:15:37;16.50;72.60
50758;DHT22;36732;47.980;11.652;2022-10-23T11:18:12;16.50;73.10
50758;DHT22;36732;47.980;11.652;2022-10-23T11:20:55;16.50;72.90
50758;DHT22;36732;47.980;11.652;2022-10-23T11:23:32;16.50;72.60
50758;DHT22;36732;47.980;11.652;2022-10-23T11:34:53;16.60;72.90
50758;DHT22;36732;47.980;11.652;2022-10-23T11:37:21;16.60;72.50
50758;DHT22;36732;47.980;11.652;2022-10-23T11:42:45;16.60;72.40
50758;DHT22;36732;47.980;11.652;2022-10-23T11:45:35;16.60;72.20
50758;DHT22;36732;47.980;11.652;2022-10-23T11:51:03;16.70;72.50
50758;DHT22;36732;47.980;11.652;2022-10-23T11:56:02;16.70;72.30
50758;DHT22;36732;47.980;11.652;2022-10-23T11:58:46;16.70;72.40
50758;DHT22;36732;47.980;11.652;2022-10-23T12:01:24;16.70;72.70
50758;DHT22;36732;47.980;11.652;2022-10-23T12:04:02;16.70;72.80
50758;DHT22;36732;47.980;11.652;2022-10-23T12:06:50;16.80;72.80
50758;DHT22;36732;47.980;11.652;2022-10-23T12:09:44;16.80;72.70
50758;DHT22;36732;47.980;11.652;2022-10-23T12:12:27;16.80;72.70
50758;DHT22;36732;47.980;11.652;2022-10-23T12:14:53;16.90;72.80
50758;DHT22;36732;47.980;11.652;2022-10-23T12:17:53;16.80;72.50
50758;DHT22;36732;47.980;11.652;2022-10-23T12:26:59;17.00;72.60
50758;DHT22;36732;47.980;11.652;2022-10-23T12:29:40;16.90;72.50
50758;DHT22;36732;47.980;11.652;2022-10-23T12:40:06;17.00;72.40
50758;DHT22;36732;47.980;11.652;2022-10-23T12:42:33;17.10;72.70
50758;DHT22;36732;47.980;11.652;2022-10-23T12:47:53;17.00;72.80
50758;DHT22;36732;47.980;11.652;2022-10-23T12:50:23;17.10;72.60
50758;DHT22;36732;47.980;11.652;2022-10-23T12:53:03;17.10;72.80
50758;DHT22;36732;47.980;11.652;2022-10-23T12:58:28;17.10;73.00
50758;DHT22;36732;47.980;11.652;2022-10-23T13:00:59;17.10;73.10
50758;DHT22;36732;47.980;11.652;2022-10-23T13:03:29;17.20;73.20
50758;DHT22;36732;47.980;11.652;2022-10-23T13:05:57;17.20;73.00
50758;DHT22;36732;47.980;11.652;2022-10-23T13:08:28;17.20;73.10
50758;DHT22;36732;47.980;11.652;2022-10-23T13:10:58;17.20;72.80
50758;DHT22;36732;47.980;11.652;2022-10-23T13:13:24;17.20;72.50
50758;DHT22;36732;47.980;11.652;2022-10-23T13:15:50;17.20;72.40
50758;DHT22;36732;47.980;11.652;2022-10-23T13:18:16;17.30;72.50
50758;DHT22;36732;47.980;11.652;2022-10-23T13:20:55;17.30;72.60
50758;DHT22;36732;47.980;11.652;2022-10-23T13:23:32;17.30;72.80
50758;DHT22;36732;47.980;11.652;2022-10-23T13:26:45;17.30;72.70
50758;DHT22;36732;47.980;11.652;2022-10-23T13:28:49;17.30;72.40
50758;DHT22;36732;47.980;11.652;2022-10-23T13:36:28;17.30;72.10
50758;DHT22;36732;47.980;11.652;2022-10-23T13:41:41;17.40;72.50
50758;DHT22;36732;47.980;11.652;2022-10-23T13:44:11;17.40;72.30
50758;DHT22;36732;47.980;11.652;2022-10-23T13:46:38;17.40;72.50
50758;DHT22;36732;47.980;11.652;2022-10-23T13:49:04;17.40;72.60
50758;DHT22;36732;47.980;11.652;2022-10-23T13:51:33;17.40;72.40
50758;DHT22;36732;47.980;11.652;2022-10-23T13:54:01;17.40;72.30
50758;DHT22;36732;47.980;11.652;2022-10-23T13:56:27;17.40;72.30
50758;DHT22;36732;47.980;11.652;2022-10-23T13:58:53;17.40;72.20
50758;DHT22;36732;47.980;11.652;2022-10-23T14:01:19;17.40;72.20
50758;DHT22;36732;47.980;11.652;2022-10-23T14:03:52;17.40;72.20
50758;DHT22;36732;47.980;11.652;2022-10-23T14:06:19;17.40;72.30
50758;DHT22;36732;47.980;11.652;2022-10-23T14:08:45;17.40;72.30
50758;DHT22;36732;47.980;11.652;2022-10-23T14:11:12;17.40;72.70
50758;DHT22;36732;47.980;11.652;2022-10-23T14:13:39;17.40;72.20
50758;DHT22;36732;47.980;11.652;2022-10-23T14:16:05;17.50;72.20
50758;DHT22;36732;47.980;11.652;2022-10-23T14:18:33;17.50;72.20
50758;DHT22;36732;47.980;11.652;2022-10-23T14:21:02;17.50;72.40
50758;DHT22;36732;47.980;11.652;2022-10-23T14:23:29;17.50;72.20
50758;DHT22;36732;47.980;11.652;2022-10-23T14:26:06;17.50;72.30
50758;DHT22;36732;47.980;11.652;2022-10-23T14:28:34;17.50;72.70
50758;DHT22;36732;47.980;11.652;2022-10-23T14:31:07;17.50;72.60
50758;DHT22;36732;47.980;11.652;2022-10-23T14:33:34;17.50;73.00
50758;DHT22;36732;47.980;11.652;2022-10-23T14:36:00;17.60;72.80
50758;DHT22;36732;47.980;11.652;2022-10-23T14:38:26;17.60;73.00
50758;DHT22;36732;47.980;11.652;2022-10-23T14:40:52;17.60;73.20
50758;DHT22;36732;47.980;11.652;2022-10-23T14:43:18;17.60;73.30
50758;DHT22;36732;47.980;11.652;2022-10-23T14:45:44;17.60;73.10
50758;DHT22;36732;47.980;11.652;2022-10-23T14:48:10;17.60;73.40
50758;DHT22;36732;47.980;11.652;2022-10-23T14:50:40;17.60;73.30
50758;DHT22;36732;47.980;11.652;2022-10-23T14:53:07;17.60;73.00
50758;DHT22;36732;47.980;11.652;2022-10-23T14:55:33;17.60;72.90
50758;DHT22;36732;47.980;11.652;2022-10-23T14:57:58;17.60;72.90
50758;DHT22;36732;47.980;11.652;2022-10-23T15:00:24;17.60;72.70
50758;DHT22;36732;47.980;11.652;2022-10-23T15:02:50;17.60;72.70
50758;DHT22;36732;47.980;11.652;2022-10-23T15:05:16;17.60;72.60
50758;DHT22;36732;47.980;11.652;2022-10-23T15:07:42;17.60;72.70
50758;DHT22;36732;47.980;11.652;2022-10-23T15:10:08;17.60;72.60
50758;DHT22;36732;47.980;11.652;2022-10-23T15:12:35;17.60;72.60
50758;DHT22;36732;47.980;11.652;2022-10-23T15:15:03;17.60;72.50
50758;DHT22;36732;47.980;11.652;2022-10-23T15:17:30;17.60;72.40
50758;DHT22;36732;47.980;11.652;2022-10-23T15:19:56;17.60;72.40
50758;DHT22;36732;47.980;11.652;2022-10-23T15:22:22;17.60;72.30
50758;DHT22;36732;47.980;11.652;2022-10-23T15:24:48;17.60;72.40
50758;DHT22;36732;47.980;11.652;2022-10-23T15:27:14;17.70;72.40
50758;DHT22;36732;47.980;11.652;2022-10-23T15:29:39;17.60;72.30
50758;DHT22;36732;47.980;11.652;2022-10-23T15:32:06;17.60;72.20
50758;DHT22;36732;47.980;11.652;2022-10-23T15:34:33;17.60;72.20
50758;DHT22;36732;47.980;11.652;2022-10-23T15:37:00;17.60;72.20
50758;DHT22;36732;47.980;11.652;2022-10-23T15:39:28;17.60;72.20
50758;DHT22;36732;47.980;11.652;2022-10-23T15:41:58;17.60;72.20
50758;DHT22;36732;47.980;11.652;2022-10-23T15:44:26;17.60;72.20
50758;DHT22;36732;47.980;11.652;2022-10-23T15:46:53;17.60;72.20
50758;DHT22;36732;47.980;11.652;2022-10-23T15:49:21;17.60;72.20
50758;DHT22;36732;47.980;11.652;2022-10-23T15:51:49;17.60;72.20
50758;DHT22;36732;47.980;11.652;2022-10-23T15:54:19;17.60;72.10
50758;DHT22;36732;47.980;11.652;2022-10-23T15:56:48;17.60;72.20
50758;DHT22;36732;47.980;11.652;2022-10-23T15:59:17;17.60;72.10
50758;DHT22;36732;47.980;11.652;2022-10-23T16:01:43;17.60;72.10
50758;DHT22;36732;47.980;11.652;2022-10-23T16:04:09;17.60;72.20
50758;DHT22;36732;47.980;11.652;2022-10-23T16:06:35;17.60;72.10
50758;DHT22;36732;47.980;11.652;2022-10-23T16:09:01;17.60;72.00
50758;DHT22;36732;47.980;11.652;2022-10-23T16:11:30;17.60;72.00
50758;DHT22;36732;47.980;11.652;2022-10-23T16:13:58;17.60;72.10
50758;DHT22;36732;47.980;11.652;2022-10-23T16:16:26;17.60;72.00
50758;DHT22;36732;47.980;11.652;2022-10-23T16:18:52;17.60;72.10
50758;DHT22;36732;47.980;11.652;2022-10-23T16:21:25;17.60;72.80
50758;DHT22;36732;47.980;11.652;2022-10-23T16:23:54;17.50;72.10
50758;DHT22;36732;47.980;11.652;2022-10-23T16:26:21;17.50;72.20
50758;DHT22;36732;47.980;11.652;2022-10-23T16:28:52;17.50;72.20
50758;DHT22;36732;47.980;11.652;2022-10-23T16:31:19;17.50;72.20
50758;DHT22;36732;47.980;11.652;2022-10-23T16:33:48;17.50;72.00
50758;DHT22;36732;47.980;11.652;2022-10-23T16:36:14;17.50;72.00
50758;DHT22;36732;47.980;11.652;2022-10-23T16:38:40;17.50;71.90
50758;DHT22;36732;47.980;11.652;2022-10-23T16:41:06;17.50;72.00
50758;DHT22;36732;47.980;11.652;2022-10-23T16:43:32;17.50;71.80
50758;DHT22;36732;47.980;11.652;2022-10-23T16:48:44;17.50;72.00
50758;DHT22;36732;47.980;11.652;2022-10-23T16:51:13;17.50;71.90
50758;DHT22;36732;47.980;11.652;2022-10-23T16:53:41;17.50;72.00
50758;DHT22;36732;47.980;11.652;2022-10-23T16:56:09;17.50;71.80
50758;DHT22;36732;47.980;11.652;2022-10-23T16:58:37;17.50;71.80
50758;DHT22;36732;47.980;11.652;2022-10-23T17:01:09;17.50;71.80
50758;DHT22;36732;47.980;11.652;2022-10-23T17:03:39;17.50;71.90
50758;DHT22;36732;47.980;11.652;2022-10-23T17:06:09;17.50;71.80
50758;DHT22;36732;47.980;11.652;2022-10-23T17:08:36;17.50;71.80
50758;DHT22;36732;47.980;11.652;2022-10-23T17:11:22;17.50;71.80
50758;DHT22;36732;47.980;11.652;2022-10-23T17:13:55;17.50;71.90
50758;DHT22;36732;47.980;11.652;2022-10-23T17:16:23;17.50;71.70
50758;DHT22;36732;47.980;11.652;2022-10-23T17:18:50;17.50;71.60
50758;DHT22;36732;47.980;11.652;2022-10-23T17:21:18;17.50;71.50
50758;DHT22;36732;47.980;11.652;2022-10-23T17:23:45;17.50;71.50
50758;DHT22;36732;47.980;11.652;2022-10-23T17:26:14;17.50;71.40
50758;DHT22;36732;47.980;11.652;2022-10-23T17:28:43;17.40;71.30
50758;DHT22;36732;47.980;11.652;2022-10-23T17:33:41;17.40;71.30
50758;DHT22;36732;47.980;11.652;2022-10-23T17:36:09;17.40;71.30
50758;DHT22;36732;47.980;11.652;2022-10-23T17:38:37;17.40;71.30